createdAt,value
2023-07-03T00:00:23.451Z,14.64
2023-07-03T00:03:15.309Z,14.61
2023-07-03T00:05:48.017Z,14.58
2023-07-03T00:08:19.031Z,14.55
2023-07-03T00:10:47.668Z,14.52
2023-07-03T00:13:15.890Z,14.50
2023-07-03T00:15:43.866Z,14.52
2023-07-03T00:18:11.930Z,14.54
2023-07-03T00:20:40.670Z,14.53
2023-07-03T00:23:08.662Z,14.49
2023-07-03T00:25:43.697Z,14.48
2023-07-03T00:28:15.720Z,14.49
2023-07-03T00:30:44.789Z,14.50
2023-07-03T00:33:13.437Z,14.50
2023-07-03T00:35:42.486Z,14.50
2023-07-03T00:38:16.874Z,14.52
2023-07-03T00:40:51.767Z,14.53
2023-07-03T00:43:20.151Z,14.53
2023-07-03T00:45:48.742Z,14.52
2023-07-03T00:48:18.168Z,14.53
2023-07-03T00:50:46.474Z,14.55
2023-07-03T00:53:16.233Z,14.56
2023-07-03T00:55:44.839Z,14.54
2023-07-03T00:58:12.872Z,14.49
2023-07-03T01:00:47.550Z,14.44
2023-07-03T01:03:26.080Z,14.36
2023-07-03T01:06:09.028Z,14.31
2023-07-03T01:08:39.397Z,14.26
2023-07-03T01:11:08.919Z,14.26
2023-07-03T01:13:38.569Z,14.12
2023-07-03T01:16:07.958Z,13.93
2023-07-03T01:18:37.315Z,13.79
2023-07-03T01:21:14.273Z,13.81
2023-07-03T01:23:45.678Z,13.78
2023-07-03T01:26:16.228Z,13.71
2023-07-03T01:28:46.916Z,13.66
2023-07-03T01:31:16.869Z,13.70
2023-07-03T01:33:46.285Z,13.78
2023-07-03T01:36:19.217Z,13.65
2023-07-03T01:38:49.542Z,13.58
2023-07-03T01:41:19.121Z,13.51
2023-07-03T01:43:48.198Z,13.48
2023-07-03T01:46:17.777Z,13.58
2023-07-03T01:48:45.893Z,13.66
2023-07-03T01:51:21.566Z,13.72
2023-07-03T01:54:11.021Z,13.70
2023-07-03T01:56:42.924Z,13.64
2023-07-03T01:59:19.121Z,13.64
2023-07-03T02:01:53.509Z,13.54
2023-07-03T02:04:40.720Z,13.43
2023-07-03T02:07:12.102Z,13.35
2023-07-03T02:09:41.448Z,13.43
2023-07-03T02:12:11.253Z,13.51
2023-07-03T02:14:39.560Z,13.55
2023-07-03T02:17:07.985Z,13.50
2023-07-03T02:19:41.991Z,13.36
2023-07-03T02:22:10.153Z,13.18
2023-07-03T02:24:40.147Z,13.18
2023-07-03T02:27:08.154Z,13.20
2023-07-03T02:29:36.253Z,13.27
2023-07-03T02:32:09.506Z,13.31
2023-07-03T02:34:37.352Z,13.19
2023-07-03T02:37:06.601Z,13.18
2023-07-03T02:39:36.893Z,13.19
2023-07-03T02:42:05.061Z,13.18
2023-07-03T02:44:34.378Z,13.17
2023-07-03T02:47:02.390Z,13.08
2023-07-03T02:49:31.152Z,13.06
2023-07-03T02:52:01.242Z,13.14
2023-07-03T02:54:31.050Z,13.22
2023-07-03T02:56:59.047Z,13.25
2023-07-03T02:59:27.649Z,13.23
2023-07-03T03:01:55.671Z,13.25
2023-07-03T03:04:24.370Z,13.28
2023-07-03T03:06:52.391Z,13.28
2023-07-03T03:09:20.536Z,13.17
2023-07-03T03:11:49.853Z,13.18
2023-07-03T03:14:18.260Z,13.21
2023-07-03T03:16:46.594Z,13.25
2023-07-03T03:19:14.584Z,13.30
2023-07-03T03:21:43.020Z,13.34
2023-07-03T03:24:11.253Z,13.39
2023-07-03T03:26:39.277Z,13.42
2023-07-03T03:29:07.241Z,13.45
2023-07-03T03:31:35.313Z,13.48
2023-07-03T03:34:05.419Z,13.49
2023-07-03T03:36:34.703Z,13.50
2023-07-03T03:39:04.375Z,13.50
2023-07-03T03:41:33.071Z,13.52
2023-07-03T03:44:01.605Z,13.54
2023-07-03T03:46:30.167Z,13.55
2023-07-03T03:48:59.420Z,13.57
2023-07-03T03:51:28.088Z,13.61
2023-07-03T03:53:56.369Z,13.65
2023-07-03T03:56:24.797Z,13.68
2023-07-03T03:58:52.896Z,13.74
2023-07-03T04:01:27.423Z,13.79
2023-07-03T04:04:02.754Z,13.84
2023-07-03T04:06:31.220Z,13.86
2023-07-03T04:09:00.154Z,13.92
2023-07-03T04:11:33.299Z,14.01
2023-07-03T04:14:05.341Z,14.10
2023-07-03T04:16:33.582Z,14.18
2023-07-03T04:19:02.606Z,14.25
2023-07-03T04:21:30.522Z,14.30
2023-07-03T04:23:58.598Z,14.38
2023-07-03T04:26:26.580Z,14.44
2023-07-03T04:28:54.584Z,14.51
2023-07-03T04:31:22.566Z,14.55
2023-07-03T04:33:50.537Z,14.60
2023-07-03T04:36:24.781Z,14.65
2023-07-03T04:38:58.478Z,14.71
2023-07-03T04:41:28.347Z,14.75
2023-07-03T04:43:59.478Z,14.78
2023-07-03T04:46:32.580Z,14.81
2023-07-03T04:49:05.730Z,14.87
2023-07-03T04:51:33.863Z,14.94
2023-07-03T04:54:02.458Z,15.00
2023-07-03T04:56:33.977Z,15.06
2023-07-03T04:59:01.914Z,15.14
2023-07-03T05:01:31.722Z,15.20
2023-07-03T05:04:00.227Z,15.28
2023-07-03T05:06:28.584Z,15.33
2023-07-03T05:08:57.244Z,15.37
2023-07-03T05:11:25.313Z,15.42
2023-07-03T05:13:53.514Z,15.48
2023-07-03T05:16:21.786Z,15.53
2023-07-03T05:18:50.130Z,15.60
2023-07-03T05:21:18.510Z,15.64
2023-07-03T05:23:46.609Z,15.69
2023-07-03T05:26:14.626Z,15.73
2023-07-03T05:28:42.590Z,15.77
2023-07-03T05:31:10.986Z,15.84
2023-07-03T05:33:39.273Z,15.93
2023-07-03T05:36:07.321Z,16.03
2023-07-03T05:38:35.943Z,16.10
2023-07-03T05:41:04.521Z,16.16
2023-07-03T05:43:32.504Z,16.24
2023-07-03T05:46:00.596Z,16.28
2023-07-03T05:48:28.604Z,16.36
2023-07-03T05:51:02.923Z,16.45
2023-07-03T05:53:31.061Z,16.55
2023-07-03T05:56:00.689Z,16.63
2023-07-03T05:58:29.376Z,16.70
2023-07-03T06:01:21.332Z,16.73
2023-07-03T06:03:49.789Z,16.81
2023-07-03T06:06:17.805Z,16.92
2023-07-03T06:08:46.034Z,17.03
2023-07-03T06:11:14.004Z,17.15
2023-07-03T06:13:42.523Z,17.28
2023-07-03T06:16:10.562Z,17.36
2023-07-03T06:18:41.122Z,17.43
2023-07-03T06:21:09.093Z,17.49
2023-07-03T06:23:37.306Z,17.57
2023-07-03T06:26:05.470Z,17.65
2023-07-03T06:28:33.598Z,17.71
2023-07-03T06:31:01.568Z,17.76
2023-07-03T06:33:29.793Z,17.76
2023-07-03T06:35:58.257Z,17.82
2023-07-03T06:38:26.242Z,17.91
2023-07-03T06:40:59.609Z,18.02
2023-07-03T06:43:27.700Z,18.08
2023-07-03T06:45:58.321Z,18.12
2023-07-03T06:48:27.068Z,18.17
2023-07-03T06:51:03.536Z,18.21
2023-07-03T06:53:31.751Z,18.24
2023-07-03T06:56:01.304Z,18.29
2023-07-03T06:58:30.430Z,18.36
2023-07-03T07:00:58.363Z,18.43
2023-07-03T07:03:26.690Z,18.50
2023-07-03T07:05:57.024Z,18.52
2023-07-03T07:08:25.687Z,18.56
2023-07-03T07:10:53.602Z,18.64
2023-07-03T07:13:26.668Z,18.69
2023-07-03T07:16:00.950Z,18.75
2023-07-03T07:18:28.982Z,18.78
2023-07-03T07:20:57.407Z,18.83
2023-07-03T07:23:27.444Z,18.85
2023-07-03T07:25:58.745Z,18.87
2023-07-03T07:28:27.089Z,18.90
2023-07-03T07:30:56.741Z,18.97
2023-07-03T07:33:25.272Z,19.03
2023-07-03T07:35:53.704Z,19.08
2023-07-03T07:38:23.264Z,19.11
2023-07-03T07:41:02.444Z,19.14
2023-07-03T07:43:30.588Z,19.21
2023-07-03T07:45:58.956Z,19.28
2023-07-03T07:48:29.429Z,19.35
2023-07-03T07:50:59.116Z,19.39
2023-07-03T07:53:30.488Z,19.43
2023-07-03T07:56:02.812Z,19.46
2023-07-03T07:58:31.421Z,19.51
2023-07-03T08:00:59.320Z,19.52
2023-07-03T08:03:28.724Z,19.61
2023-07-03T08:06:02.086Z,19.74
2023-07-03T08:08:31.936Z,19.87
2023-07-03T08:11:02.046Z,19.94
2023-07-03T08:13:32.620Z,20.01
2023-07-03T08:16:00.770Z,20.06
2023-07-03T08:18:29.106Z,20.15
2023-07-03T08:20:57.084Z,20.20
2023-07-03T08:23:25.246Z,20.21
2023-07-03T08:26:01.922Z,20.21
2023-07-03T08:28:33.172Z,20.29
2023-07-03T08:31:01.808Z,20.41
2023-07-03T08:33:29.937Z,20.52
2023-07-03T08:38:28.878Z,20.57
2023-07-03T08:41:01.557Z,20.59
2023-07-03T08:43:35.447Z,20.69
2023-07-03T08:46:04.844Z,20.69
2023-07-03T08:48:36.717Z,20.61
2023-07-03T08:51:11.157Z,20.58
2023-07-03T08:53:42.426Z,20.54
2023-07-03T08:56:21.596Z,20.50
2023-07-03T08:58:55.217Z,20.43
2023-07-03T09:01:28.218Z,20.36
2023-07-03T09:04:09.777Z,20.30
2023-07-03T09:06:59.292Z,20.21
2023-07-03T09:09:48.901Z,20.12
2023-07-03T09:12:48.850Z,20.00
2023-07-03T09:15:28.598Z,19.88
2023-07-03T09:17:59.783Z,19.80
2023-07-03T09:20:30.667Z,19.74
2023-07-03T09:23:04.816Z,19.73
2023-07-03T09:25:59.637Z,19.72
2023-07-03T09:28:34.297Z,19.75
2023-07-03T09:31:07.163Z,19.84
2023-07-03T09:33:35.351Z,19.95
2023-07-03T09:36:19.482Z,20.05
2023-07-03T09:38:48.678Z,20.21
2023-07-03T09:41:31.038Z,20.38
2023-07-03T09:44:01.407Z,20.54
2023-07-03T09:46:30.492Z,20.67
2023-07-03T09:49:02.539Z,20.72
2023-07-03T09:51:35.474Z,20.77
2023-07-03T09:54:17.526Z,20.84
2023-07-03T09:56:45.891Z,21.01
2023-07-03T09:59:18.109Z,21.06
2023-07-03T10:07:08.814Z,21.26
2023-07-03T10:12:31.942Z,21.41
2023-07-03T10:15:09.252Z,21.30
2023-07-03T10:17:49.985Z,21.25
2023-07-03T10:20:28.215Z,21.23
2023-07-03T10:22:59.964Z,21.24
2023-07-03T10:25:32.168Z,21.34
2023-07-03T10:28:08.024Z,21.50
2023-07-03T10:30:39.163Z,21.65
2023-07-03T10:33:20.139Z,21.72
2023-07-03T10:35:51.681Z,21.78
2023-07-03T10:38:47.557Z,21.90
2023-07-03T10:41:18.730Z,21.94
2023-07-03T10:44:05.139Z,21.95
2023-07-03T10:47:12.885Z,22.05
2023-07-03T10:49:41.390Z,22.06
2023-07-03T10:52:30.705Z,22.06
2023-07-03T10:55:11.750Z,22.07
2023-07-03T10:57:54.933Z,22.06
2023-07-03T11:00:40.604Z,22.08
2023-07-03T11:03:30.016Z,22.19
2023-07-03T11:06:09.712Z,22.26
2023-07-03T11:09:05.136Z,22.23
2023-07-03T11:12:03.588Z,22.21
2023-07-03T11:15:23.599Z,22.19
2023-07-03T11:24:21.100Z,22.05
2023-07-03T11:29:43.291Z,21.79
2023-07-03T11:32:12.173Z,21.69
2023-07-03T11:40:27.390Z,21.42
2023-07-03T11:45:51.144Z,21.25
2023-07-03T11:48:28.122Z,21.19
2023-07-03T11:51:00.312Z,21.13
2023-07-03T11:53:35.215Z,21.08
2023-07-03T11:56:05.915Z,21.08
2023-07-03T11:58:35.717Z,21.11
2023-07-03T12:01:26.157Z,21.16
2023-07-03T12:03:57.483Z,21.22
2023-07-03T12:06:41.464Z,21.36
2023-07-03T12:09:21.964Z,21.56
2023-07-03T12:12:04.065Z,21.74
2023-07-03T12:14:41.050Z,21.81
2023-07-03T12:17:44.824Z,21.83
2023-07-03T12:20:23.785Z,21.81
2023-07-03T12:22:53.752Z,21.79
2023-07-03T12:25:29.862Z,21.79
2023-07-03T12:28:16.432Z,21.81
2023-07-03T12:30:44.760Z,21.91
2023-07-03T12:33:23.919Z,22.05
2023-07-03T12:35:53.374Z,22.21
2023-07-03T12:38:24.840Z,22.45
2023-07-03T12:41:00.084Z,22.67
2023-07-03T12:43:28.055Z,22.79
2023-07-03T12:45:55.952Z,22.87
2023-07-03T12:48:24.885Z,22.91
2023-07-03T12:50:57.776Z,22.96
2023-07-03T12:53:33.753Z,23.02
2023-07-03T12:56:10.240Z,23.10
2023-07-03T12:58:38.911Z,23.19
2023-07-03T13:01:09.201Z,23.22
2023-07-03T13:03:42.381Z,23.28
2023-07-03T13:06:20.733Z,23.41
2023-07-03T13:08:49.630Z,23.45
2023-07-03T13:11:39.479Z,23.40
2023-07-03T13:14:09.375Z,23.33
2023-07-03T13:16:37.953Z,23.25
2023-07-03T13:19:06.476Z,23.16
2023-07-03T13:21:37.135Z,23.12
2023-07-03T13:24:14.557Z,23.10
2023-07-03T13:26:48.616Z,23.09
2023-07-03T13:29:28.322Z,23.07
2023-07-03T13:32:23.884Z,23.09
2023-07-03T13:34:57.817Z,23.17
2023-07-03T13:37:37.978Z,23.30
2023-07-03T13:40:15.495Z,23.42
2023-07-03T13:43:10.038Z,23.52
2023-07-03T13:45:43.246Z,23.48
2023-07-03T13:48:18.148Z,23.37
2023-07-03T13:50:55.151Z,23.23
2023-07-03T13:53:34.899Z,23.10
2023-07-03T13:56:19.007Z,23.03
2023-07-03T13:59:09.569Z,22.96
2023-07-03T14:01:48.061Z,22.92
2023-07-03T14:04:17.459Z,22.92
2023-07-03T14:06:46.145Z,22.96
2023-07-03T14:09:14.323Z,23.05
2023-07-03T14:11:44.071Z,23.14
2023-07-03T14:14:12.557Z,23.18
2023-07-03T14:16:40.875Z,23.15
2023-07-03T14:19:09.706Z,23.12
2023-07-03T14:21:38.334Z,23.13
2023-07-03T14:24:06.574Z,23.17
2023-07-03T14:26:35.386Z,23.22
2023-07-03T14:29:03.436Z,23.29
2023-07-03T14:31:32.995Z,23.40
2023-07-03T14:34:01.118Z,23.56
2023-07-03T14:36:29.492Z,23.76
2023-07-03T14:38:57.557Z,23.87
2023-07-03T14:41:28.847Z,23.92
2023-07-03T14:43:57.024Z,24.05
2023-07-03T14:46:25.051Z,24.27
2023-07-03T14:48:53.261Z,24.43
2023-07-03T14:51:21.777Z,24.55
2023-07-03T14:53:51.860Z,24.66
2023-07-03T14:56:19.959Z,24.75
2023-07-03T14:58:47.897Z,24.72
2023-07-03T15:01:15.794Z,24.63
2023-07-03T15:03:43.909Z,24.67
2023-07-03T15:06:12.409Z,24.70
2023-07-03T15:08:40.682Z,24.70
2023-07-03T15:11:19.330Z,24.56
2023-07-03T15:13:48.003Z,24.50
2023-07-03T15:16:16.237Z,24.47
2023-07-03T15:18:51.765Z,24.49
2023-07-03T15:21:20.220Z,24.55
2023-07-03T15:23:49.392Z,24.60
2023-07-03T15:26:17.508Z,24.56
2023-07-03T15:28:46.155Z,24.53
2023-07-03T15:31:15.032Z,24.48
2023-07-03T15:33:46.246Z,24.39
2023-07-03T15:36:14.645Z,24.29
2023-07-03T15:38:46.007Z,24.07
2023-07-03T15:41:17.095Z,23.79
2023-07-03T15:43:49.077Z,23.55
2023-07-03T15:46:17.837Z,23.41
2023-07-03T15:48:52.519Z,23.35
2023-07-03T15:51:20.915Z,23.22
2023-07-03T15:53:49.070Z,23.10
2023-07-03T15:56:26.547Z,23.02
2023-07-03T15:59:05.546Z,22.89
2023-07-03T16:01:41.447Z,22.75
2023-07-03T16:04:13.157Z,22.62
2023-07-03T16:06:45.052Z,22.50
2023-07-03T16:09:16.758Z,22.38
2023-07-03T16:11:51.652Z,22.38
2023-07-03T16:14:33.691Z,22.49
2023-07-03T16:17:22.852Z,22.70
2023-07-03T16:20:10.103Z,22.93
2023-07-03T16:26:03.608Z,23.17
2023-07-03T16:28:49.936Z,23.17
2023-07-03T16:31:32.008Z,23.09
2023-07-03T16:34:06.404Z,23.02
2023-07-03T16:36:42.212Z,22.92
2023-07-03T16:39:14.007Z,22.82
2023-07-03T16:41:47.272Z,22.79
2023-07-03T16:44:32.589Z,22.78
2023-07-03T16:47:17.893Z,22.64
2023-07-03T16:49:56.677Z,22.51
2023-07-03T16:52:31.950Z,22.43
2023-07-03T16:57:57.286Z,22.45
2023-07-03T17:00:34.986Z,22.36
2023-07-03T17:03:07.335Z,22.19
2023-07-03T17:09:02.132Z,21.81
2023-07-03T17:11:34.319Z,21.66
2023-07-03T17:14:08.132Z,21.54
2023-07-03T17:16:46.708Z,21.45
2023-07-03T17:19:46.087Z,21.36
2023-07-03T17:22:27.212Z,21.29
2023-07-03T17:24:58.057Z,21.22
2023-07-03T17:27:35.891Z,21.18
2023-07-03T17:30:13.183Z,21.16
2023-07-03T17:32:50.207Z,21.14
2023-07-03T17:35:24.822Z,21.18
2023-07-03T17:37:53.074Z,21.26
2023-07-03T17:40:21.127Z,21.31
2023-07-03T17:42:50.426Z,21.32
2023-07-03T17:45:31.634Z,21.34
2023-07-03T17:48:06.054Z,21.29
2023-07-03T17:50:34.910Z,21.29
2023-07-03T17:53:32.591Z,21.26
2023-07-03T17:57:09.254Z,21.18
2023-07-03T18:00:24.787Z,21.04
2023-07-03T18:03:02.466Z,20.95
2023-07-03T18:05:46.020Z,20.82
2023-07-03T18:08:16.995Z,20.73
2023-07-03T18:11:04.643Z,20.64
2023-07-03T18:13:49.932Z,20.55
2023-07-03T18:16:35.624Z,20.46
2023-07-03T18:19:13.116Z,20.37
2023-07-03T18:22:05.381Z,20.29
2023-07-03T18:25:14.606Z,20.19
2023-07-03T18:27:48.485Z,20.12
2023-07-03T18:30:21.350Z,20.05
2023-07-03T18:33:00.724Z,20.00
2023-07-03T18:35:28.950Z,19.96
2023-07-03T18:37:58.880Z,19.91
2023-07-03T18:40:41.766Z,19.87
2023-07-03T18:43:09.869Z,19.83
2023-07-03T18:46:17.380Z,19.79
2023-07-03T18:48:58.098Z,19.73
2023-07-03T18:51:27.220Z,19.71
2023-07-03T18:53:55.281Z,19.67
2023-07-03T18:56:26.033Z,19.61
2023-07-03T18:58:54.392Z,19.53
2023-07-03T19:01:25.391Z,19.46
2023-07-03T19:03:58.458Z,19.40
2023-07-03T19:06:28.159Z,19.34
2023-07-03T19:09:28.958Z,19.25
2023-07-03T19:12:57.821Z,19.14
2023-07-03T19:15:54.818Z,19.00
2023-07-03T19:20:23.196Z,18.84
2023-07-03T19:31:43.529Z,18.32
2023-07-03T19:34:29.096Z,18.23
2023-07-03T19:37:54.518Z,18.11
2023-07-03T19:41:26.150Z,17.96
2023-07-03T19:44:10.463Z,17.88
2023-07-03T19:47:39.734Z,17.74
2023-07-03T19:50:03.364Z,17.49
2023-07-03T19:55:55.523Z,17.15
2023-07-03T19:58:24.466Z,17.03
2023-07-03T20:01:08.187Z,16.91
2023-07-03T20:03:36.250Z,16.86
2023-07-03T20:06:19.454Z,16.75
2023-07-03T20:11:53.076Z,16.42
2023-07-03T20:14:49.345Z,16.29
2023-07-03T20:18:03.973Z,16.19
2023-07-03T20:21:16.883Z,16.09
2023-07-03T20:24:11.098Z,16.00
2023-07-03T20:26:54.512Z,15.89
2023-07-03T20:30:08.740Z,15.83
2023-07-03T20:37:05.343Z,15.66
2023-07-03T20:46:22.836Z,15.50
2023-07-03T20:48:42.222Z,15.50
2023-07-03T20:56:35.265Z,15.40
2023-07-03T21:00:54.256Z,15.23
2023-07-03T21:32:31.271Z,14.80
2023-07-03T22:02:01.438Z,14.21
2023-07-03T22:05:06.302Z,14.22
2023-07-03T22:08:12.036Z,14.33
2023-07-03T22:12:30.575Z,14.45
2023-07-03T22:16:45.538Z,14.55
2023-07-03T22:20:09.226Z,14.56
2023-07-03T22:23:32.144Z,14.59
2023-07-03T22:31:04.227Z,14.34
2023-07-03T22:40:49.503Z,14.10
2023-07-03T22:47:53.362Z,14.08
2023-07-03T22:51:45.955Z,14.07
2023-07-03T22:58:36.346Z,14.04
2023-07-03T23:05:09.903Z,14.10
2023-07-03T23:11:51.814Z,14.06
2023-07-03T23:18:21.093Z,14.02
2023-07-03T23:21:34.241Z,13.98
2023-07-03T23:24:45.875Z,13.90
2023-07-03T23:28:14.311Z,13.87
2023-07-03T23:40:55.880Z,13.67
2023-07-03T23:46:34.173Z,13.59
2023-07-03T23:50:36.236Z,13.56
